Impacts TAF Board
For situational awareness. Not to be used for flight planning purposes.
IDs:

KMSY - New Orleans/Armstron, LA, US

Issued at 2328 UTC 02 Oct 2022
Updated at 2336 UTC 02 Oct 2022
Potential Impact None Slight Moderate High
Time<<03/12Z 03/13Z 03/14Z 03/15Z 03/16Z 03/17Z 03/18Z 03/19Z 03/20Z 03/21Z 03/22Z 03/23Z 04/00Z>>
Type PRVL PRVL PRVL PRVL PRVL PRVL PRVL PRVL PRVL PRVL PRVL PRVL PRVL
VIS >6 >6 >6 >6 >6 >6 >6 >6 >6 >6 >6 >6 >6
CIG -- -- -- -- -- -- -- -- -- -- -- -- --
Cover SCT SCT SCT SCT SCT SCT SCT SCT SCT SCT SCT SCT SCT
FltCat VFR VFR VFR VFR VFR VFR VFR VFR VFR VFR VFR VFR VFR
WX -- -- -- -- -- -- -- -- -- -- -- -- --
WDir 40 40 40 40 40 40 10 10 10 10 10 10 VRB
WSpd 6 6 6 6 6 6 8 8 8 8 8 8 4
WGst -- -- -- -- -- -- -- -- -- -- -- -- --
WSHgt -- -- -- -- -- -- -- -- -- -- -- -- --
WSDir -- -- -- -- -- -- -- -- -- -- -- -- --
WSSpd -- -- -- -- -- -- -- -- -- -- -- -- --
R02/20
XWnd -3 -3 -3 -3 -3 -3 1 1 1 1 1 1 VRB
HWnd 5 5 5 5 5 5 8 8 8 8 8 8 VRB
R11/29
XWnd 5 5 5 5 5 5 8 8 8 8 8 8 VRB
HWnd 3 3 3 3 3 3 -1 -1 -1 -1 -1 -1 VRB
Raw TAF
KMSY 022328Z 0300/0406 VRB04KT P6SM SCT250
  FM031100 04006KT P6SM SCT250
  FM031800 01008KT P6SM SCT250
  FM040000 VRB04KT P6SM SCT250


METAR Board
Radar Display
Forecast Discussion
For situational awareness. Not to be used for flight planning purposes.